TAF and METAR

Could not understand the following METAR

NVSC 210600Z AUTO 02005KT //// // NCD 26/20 Q1014 RMK NIL

TAF for Sola Airport

TAF NVSC 210430Z 2106/2206 07010KT 9999 SCT020
Report created 21. jul 06:30

between 21. jul 08:00 - 22. jul 08:00

wind 10 knots from ENE (070°) visibility > 10km scattered clouds (~50% cover) at 2000 feet